sensor_id;sensor_type;location;lat;lon;timestamp;P1;durP1;ratioP1;P2;durP2;ratioP2
45033;SDS011;30771;47.988;-4.186;2023-05-10T06:02:33;44.97;;;4.82;;
45033;SDS011;30771;47.988;-4.186;2023-05-10T06:04:58;46.03;;;4.95;;
45033;SDS011;30771;47.988;-4.186;2023-05-10T06:07:23;47.90;;;5.28;;
45033;SDS011;30771;47.988;-4.186;2023-05-10T06:09:49;45.55;;;5.53;;
45033;SDS011;30771;47.988;-4.186;2023-05-10T06:12:14;25.80;;;3.60;;
45033;SDS011;30771;47.988;-4.186;2023-05-10T06:14:39;27.95;;;3.80;;
45033;SDS011;30771;47.988;-4.186;2023-05-10T06:17:05;24.88;;;4.00;;
45033;SDS011;30771;47.988;-4.186;2023-05-10T06:19:30;15.02;;;2.97;;
45033;SDS011;30771;47.988;-4.186;2023-05-10T06:21:55;15.23;;;2.50;;
45033;SDS011;30771;47.988;-4.186;2023-05-10T06:24:20;13.18;;;2.20;;
45033;SDS011;30771;47.988;-4.186;2023-05-10T06:26:46;16.33;;;2.65;;
45033;SDS011;30771;47.988;-4.186;2023-05-10T06:29:11;16.33;;;2.55;;
45033;SDS011;30771;47.988;-4.186;2023-05-10T06:31:37;18.30;;;3.15;;
45033;SDS011;30771;47.988;-4.186;2023-05-10T06:34:02;16.52;;;2.25;;
45033;SDS011;30771;47.988;-4.186;2023-05-10T06:36:27;23.58;;;3.63;;
45033;SDS011;30771;47.988;-4.186;2023-05-10T06:38:52;17.33;;;2.85;;
45033;SDS011;30771;47.988;-4.186;2023-05-10T06:41:18;17.95;;;2.90;;
45033;SDS011;30771;47.988;-4.186;2023-05-10T06:43:43;16.90;;;2.47;;
45033;SDS011;30771;47.988;-4.186;2023-05-10T06:46:08;16.05;;;2.63;;
45033;SDS011;30771;47.988;-4.186;2023-05-10T06:48:34;24.70;;;3.83;;
45033;SDS011;30771;47.988;-4.186;2023-05-10T06:50:59;19.48;;;3.15;;
45033;SDS011;30771;47.988;-4.186;2023-05-10T06:53:24;22.77;;;3.20;;
45033;SDS011;30771;47.988;-4.186;2023-05-10T06:55:49;23.08;;;3.38;;
45033;SDS011;30771;47.988;-4.186;2023-05-10T06:58:15;21.10;;;2.92;;
45033;SDS011;30771;47.988;-4.186;2023-05-10T07:00:40;24.50;;;3.40;;
45033;SDS011;30771;47.988;-4.186;2023-05-10T07:03:05;21.17;;;3.20;;
45033;SDS011;30771;47.988;-4.186;2023-05-10T07:05:31;20.75;;;3.10;;
45033;SDS011;30771;47.988;-4.186;2023-05-10T07:07:56;26.50;;;3.70;;
45033;SDS011;30771;47.988;-4.186;2023-05-10T07:10:21;23.17;;;3.50;;
45033;SDS011;30771;47.988;-4.186;2023-05-10T07:12:47;19.20;;;2.63;;
45033;SDS011;30771;47.988;-4.186;2023-05-10T07:15:12;16.05;;;3.17;;
45033;SDS011;30771;47.988;-4.186;2023-05-10T07:17:37;25.10;;;3.38;;
45033;SDS011;30771;47.988;-4.186;2023-05-10T07:20:02;20.60;;;2.80;;
45033;SDS011;30771;47.988;-4.186;2023-05-10T07:22:28;20.35;;;3.28;;
45033;SDS011;30771;47.988;-4.186;2023-05-10T07:24:53;21.88;;;2.80;;
45033;SDS011;30771;47.988;-4.186;2023-05-10T07:27:19;17.60;;;2.60;;
45033;SDS011;30771;47.988;-4.186;2023-05-10T07:29:44;21.27;;;2.72;;
45033;SDS011;30771;47.988;-4.186;2023-05-10T07:32:09;16.92;;;2.60;;
45033;SDS011;30771;47.988;-4.186;2023-05-10T07:34:35;20.75;;;2.50;;
45033;SDS011;30771;47.988;-4.186;2023-05-10T07:37:00;22.63;;;3.25;;
45033;SDS011;30771;47.988;-4.186;2023-05-10T07:39:26;18.60;;;2.95;;
45033;SDS011;30771;47.988;-4.186;2023-05-10T07:41:52;20.25;;;2.40;;
45033;SDS011;30771;47.988;-4.186;2023-05-10T07:44:17;12.95;;;2.25;;
45033;SDS011;30771;47.988;-4.186;2023-05-10T07:46:43;15.57;;;2.53;;
45033;SDS011;30771;47.988;-4.186;2023-05-10T07:49:08;28.67;;;2.80;;
45033;SDS011;30771;47.988;-4.186;2023-05-10T07:51:33;20.33;;;2.95;;
45033;SDS011;30771;47.988;-4.186;2023-05-10T07:53:58;17.58;;;2.45;;
45033;SDS011;30771;47.988;-4.186;2023-05-10T07:56:25;24.65;;;3.45;;
45033;SDS011;30771;47.988;-4.186;2023-05-10T07:58:52;23.83;;;3.03;;
45033;SDS011;30771;47.988;-4.186;2023-05-10T08:01:18;18.08;;;3.13;;
45033;SDS011;30771;47.988;-4.186;2023-05-10T08:03:44;22.08;;;2.65;;
45033;SDS011;30771;47.988;-4.186;2023-05-10T08:06:09;31.33;;;3.92;;
45033;SDS011;30771;47.988;-4.186;2023-05-10T08:08:34;21.60;;;2.70;;
45033;SDS011;30771;47.988;-4.186;2023-05-10T08:11:00;22.70;;;3.83;;
45033;SDS011;30771;47.988;-4.186;2023-05-10T08:13:25;22.20;;;3.08;;
45033;SDS011;30771;47.988;-4.186;2023-05-10T08:15:50;25.52;;;4.20;;
45033;SDS011;30771;47.988;-4.186;2023-05-10T08:18:15;21.42;;;2.58;;
45033;SDS011;30771;47.988;-4.186;2023-05-10T08:20:41;23.05;;;2.65;;
45033;SDS011;30771;47.988;-4.186;2023-05-10T08:23:06;25.70;;;2.80;;
45033;SDS011;30771;47.988;-4.186;2023-05-10T08:25:31;19.15;;;2.60;;
45033;SDS011;30771;47.988;-4.186;2023-05-10T08:27:57;16.20;;;2.53;;
45033;SDS011;30771;47.988;-4.186;2023-05-10T08:30:22;20.55;;;3.33;;
45033;SDS011;30771;47.988;-4.186;2023-05-10T08:32:47;19.98;;;2.97;;
45033;SDS011;30771;47.988;-4.186;2023-05-10T08:35:12;18.90;;;3.67;;
45033;SDS011;30771;47.988;-4.186;2023-05-10T08:37:38;17.30;;;2.78;;
45033;SDS011;30771;47.988;-4.186;2023-05-10T08:40:03;15.95;;;2.65;;
45033;SDS011;30771;47.988;-4.186;2023-05-10T08:42:30;19.27;;;2.67;;
45033;SDS011;30771;47.988;-4.186;2023-05-10T08:44:58;15.82;;;2.40;;
45033;SDS011;30771;47.988;-4.186;2023-05-10T08:47:24;12.32;;;2.25;;
45033;SDS011;30771;47.988;-4.186;2023-05-10T08:49:50;18.50;;;2.88;;
45033;SDS011;30771;47.988;-4.186;2023-05-10T08:52:15;19.10;;;3.13;;
45033;SDS011;30771;47.988;-4.186;2023-05-10T08:54:42;17.48;;;2.65;;
45033;SDS011;30771;47.988;-4.186;2023-05-10T08:57:07;15.52;;;2.20;;
45033;SDS011;30771;47.988;-4.186;2023-05-10T08:59:33;16.60;;;2.67;;
45033;SDS011;30771;47.988;-4.186;2023-05-10T09:01:58;23.42;;;2.70;;
45033;SDS011;30771;47.988;-4.186;2023-05-10T09:04:24;17.27;;;2.25;;
45033;SDS011;30771;47.988;-4.186;2023-05-10T09:06:49;16.85;;;2.80;;
45033;SDS011;30771;47.988;-4.186;2023-05-10T09:09:14;23.77;;;2.75;;
45033;SDS011;30771;47.988;-4.186;2023-05-10T09:11:40;12.77;;;1.92;;
45033;SDS011;30771;47.988;-4.186;2023-05-10T09:14:06;12.10;;;2.08;;
45033;SDS011;30771;47.988;-4.186;2023-05-10T09:16:31;16.05;;;2.63;;
45033;SDS011;30771;47.988;-4.186;2023-05-10T09:18:57;14.43;;;2.38;;
45033;SDS011;30771;47.988;-4.186;2023-05-10T09:21:22;13.05;;;2.58;;
45033;SDS011;30771;47.988;-4.186;2023-05-10T09:23:47;14.70;;;2.47;;
45033;SDS011;30771;47.988;-4.186;2023-05-10T09:26:13;16.80;;;2.40;;
45033;SDS011;30771;47.988;-4.186;2023-05-10T09:31:20;9.27;;;1.83;;
45033;SDS011;30771;47.988;-4.186;2023-05-10T09:33:48;15.85;;;2.30;;
45033;SDS011;30771;47.988;-4.186;2023-05-10T09:36:14;12.00;;;2.13;;
45033;SDS011;30771;47.988;-4.186;2023-05-10T09:38:47;18.73;;;2.75;;
45033;SDS011;30771;47.988;-4.186;2023-05-10T09:41:19;15.02;;;2.47;;
45033;SDS011;30771;47.988;-4.186;2023-05-10T09:43:48;14.15;;;1.90;;
45033;SDS011;30771;47.988;-4.186;2023-05-10T09:46:17;14.70;;;2.08;;
45033;SDS011;30771;47.988;-4.186;2023-05-10T09:48:43;10.20;;;1.67;;
45033;SDS011;30771;47.988;-4.186;2023-05-10T09:51:10;14.32;;;1.90;;
45033;SDS011;30771;47.988;-4.186;2023-05-10T09:53:35;8.25;;;1.55;;
45033;SDS011;30771;47.988;-4.186;2023-05-10T09:56:01;14.48;;;2.33;;
45033;SDS011;30771;47.988;-4.186;2023-05-10T09:58:26;19.88;;;2.70;;
45033;SDS011;30771;47.988;-4.186;2023-05-10T10:00:51;20.85;;;3.20;;
45033;SDS011;30771;47.988;-4.186;2023-05-10T10:03:18;11.98;;;1.92;;
45033;SDS011;30771;47.988;-4.186;2023-05-10T10:05:47;15.25;;;2.83;;
45033;SDS011;30771;47.988;-4.186;2023-05-10T10:08:13;13.40;;;2.38;;
45033;SDS011;30771;47.988;-4.186;2023-05-10T10:10:39;11.48;;;2.55;;
45033;SDS011;30771;47.988;-4.186;2023-05-10T10:13:05;13.27;;;2.25;;
45033;SDS011;30771;47.988;-4.186;2023-05-10T10:15:30;14.43;;;2.55;;
45033;SDS011;30771;47.988;-4.186;2023-05-10T10:17:56;13.55;;;2.42;;
45033;SDS011;30771;47.988;-4.186;2023-05-10T10:20:22;12.95;;;2.55;;
45033;SDS011;30771;47.988;-4.186;2023-05-10T10:22:47;20.98;;;2.50;;
45033;SDS011;30771;47.988;-4.186;2023-05-10T10:25:16;20.23;;;2.63;;
45033;SDS011;30771;47.988;-4.186;2023-05-10T10:33:01;14.68;;;2.83;;
45033;SDS011;30771;47.988;-4.186;2023-05-10T10:35:48;18.50;;;2.80;;
45033;SDS011;30771;47.988;-4.186;2023-05-10T10:38:15;14.10;;;2.30;;
45033;SDS011;30771;47.988;-4.186;2023-05-10T10:40:40;18.30;;;2.55;;
45033;SDS011;30771;47.988;-4.186;2023-05-10T10:43:22;13.40;;;2.08;;
45033;SDS011;30771;47.988;-4.186;2023-05-10T10:46:09;18.38;;;2.28;;
45033;SDS011;30771;47.988;-4.186;2023-05-10T10:48:37;15.38;;;2.75;;
45033;SDS011;30771;47.988;-4.186;2023-05-10T10:51:03;15.57;;;2.55;;
45033;SDS011;30771;47.988;-4.186;2023-05-10T10:53:28;14.75;;;2.20;;
45033;SDS011;30771;47.988;-4.186;2023-05-10T10:56:05;10.32;;;2.13;;
45033;SDS011;30771;47.988;-4.186;2023-05-10T10:58:34;15.15;;;2.05;;
45033;SDS011;30771;47.988;-4.186;2023-05-10T11:01:11;10.88;;;2.45;;
45033;SDS011;30771;47.988;-4.186;2023-05-10T11:03:37;16.35;;;2.30;;
45033;SDS011;30771;47.988;-4.186;2023-05-10T11:06:03;9.40;;;2.10;;
45033;SDS011;30771;47.988;-4.186;2023-05-10T11:08:29;16.92;;;2.70;;
45033;SDS011;30771;47.988;-4.186;2023-05-10T11:13:43;14.45;;;2.13;;
45033;SDS011;30771;47.988;-4.186;2023-05-10T11:16:23;12.32;;;2.30;;
45033;SDS011;30771;47.988;-4.186;2023-05-10T11:18:53;12.82;;;1.73;;
45033;SDS011;30771;47.988;-4.186;2023-05-10T11:21:29;12.70;;;2.20;;
45033;SDS011;30771;47.988;-4.186;2023-05-10T11:23:55;9.18;;;2.33;;
45033;SDS011;30771;47.988;-4.186;2023-05-10T11:26:23;9.43;;;1.75;;
45033;SDS011;30771;47.988;-4.186;2023-05-10T11:28:49;16.02;;;2.05;;
45033;SDS011;30771;47.988;-4.186;2023-05-10T11:31:17;16.33;;;2.47;;
45033;SDS011;30771;47.988;-4.186;2023-05-10T11:33:44;15.57;;;2.22;;
45033;SDS011;30771;47.988;-4.186;2023-05-10T11:36:16;16.05;;;2.47;;
45033;SDS011;30771;47.988;-4.186;2023-05-10T11:38:43;16.00;;;2.20;;
45033;SDS011;30771;47.988;-4.186;2023-05-10T11:41:09;17.65;;;2.67;;
45033;SDS011;30771;47.988;-4.186;2023-05-10T11:43:35;13.10;;;2.00;;
45033;SDS011;30771;47.988;-4.186;2023-05-10T11:46:02;17.95;;;3.03;;
45033;SDS011;30771;47.988;-4.186;2023-05-10T11:48:27;17.92;;;2.60;;
45033;SDS011;30771;47.988;-4.186;2023-05-10T11:50:54;13.32;;;2.10;;
45033;SDS011;30771;47.988;-4.186;2023-05-10T11:53:19;14.57;;;2.95;;
45033;SDS011;30771;47.988;-4.186;2023-05-10T11:55:45;16.60;;;2.45;;
45033;SDS011;30771;47.988;-4.186;2023-05-10T11:58:10;17.05;;;2.63;;
45033;SDS011;30771;47.988;-4.186;2023-05-10T12:00:35;14.75;;;2.47;;
45033;SDS011;30771;47.988;-4.186;2023-05-10T12:03:01;14.25;;;2.45;;
45033;SDS011;30771;47.988;-4.186;2023-05-10T12:05:26;20.02;;;2.63;;
45033;SDS011;30771;47.988;-4.186;2023-05-10T12:07:51;17.60;;;2.58;;
45033;SDS011;30771;47.988;-4.186;2023-05-10T12:10:17;10.07;;;2.05;;
45033;SDS011;30771;47.988;-4.186;2023-05-10T12:12:51;14.13;;;2.25;;
45033;SDS011;30771;47.988;-4.186;2023-05-10T12:15:18;14.98;;;2.15;;
45033;SDS011;30771;47.988;-4.186;2023-05-10T12:17:46;13.27;;;2.08;;
45033;SDS011;30771;47.988;-4.186;2023-05-10T12:20:15;11.80;;;1.80;;
45033;SDS011;30771;47.988;-4.186;2023-05-10T12:23:02;11.10;;;2.03;;
45033;SDS011;30771;47.988;-4.186;2023-05-10T12:25:32;13.55;;;2.22;;
45033;SDS011;30771;47.988;-4.186;2023-05-10T12:27:59;14.85;;;1.90;;
45033;SDS011;30771;47.988;-4.186;2023-05-10T12:30:31;13.32;;;2.50;;
45033;SDS011;30771;47.988;-4.186;2023-05-10T12:33:02;11.70;;;2.20;;
45033;SDS011;30771;47.988;-4.186;2023-05-10T12:35:32;10.80;;;2.35;;
45033;SDS011;30771;47.988;-4.186;2023-05-10T12:37:58;7.35;;;1.45;;
45033;SDS011;30771;47.988;-4.186;2023-05-10T12:40:23;8.07;;;1.63;;
45033;SDS011;30771;47.988;-4.186;2023-05-10T12:42:48;11.60;;;1.88;;
45033;SDS011;30771;47.988;-4.186;2023-05-10T12:45:14;11.75;;;2.10;;
45033;SDS011;30771;47.988;-4.186;2023-05-10T12:47:39;11.80;;;1.60;;
45033;SDS011;30771;47.988;-4.186;2023-05-10T12:50:05;9.00;;;1.45;;
45033;SDS011;30771;47.988;-4.186;2023-05-10T12:52:31;9.50;;;1.80;;
45033;SDS011;30771;47.988;-4.186;2023-05-10T12:54:56;8.88;;;1.75;;
45033;SDS011;30771;47.988;-4.186;2023-05-10T12:57:21;9.70;;;1.80;;
45033;SDS011;30771;47.988;-4.186;2023-05-10T12:59:47;11.00;;;1.70;;
45033;SDS011;30771;47.988;-4.186;2023-05-10T13:02:12;11.25;;;1.75;;
45033;SDS011;30771;47.988;-4.186;2023-05-10T13:04:38;11.77;;;1.85;;
45033;SDS011;30771;47.988;-4.186;2023-05-10T13:07:03;13.20;;;2.03;;
45033;SDS011;30771;47.988;-4.186;2023-05-10T13:09:28;11.50;;;1.83;;
45033;SDS011;30771;47.988;-4.186;2023-05-10T13:11:54;11.32;;;1.40;;
45033;SDS011;30771;47.988;-4.186;2023-05-10T13:14:19;10.80;;;1.40;;
45033;SDS011;30771;47.988;-4.186;2023-05-10T13:16:44;9.70;;;1.63;;
45033;SDS011;30771;47.988;-4.186;2023-05-10T13:19:10;8.38;;;1.50;;
45033;SDS011;30771;47.988;-4.186;2023-05-10T13:21:35;10.55;;;1.98;;
45033;SDS011;30771;47.988;-4.186;2023-05-10T13:24:03;7.05;;;1.50;;
45033;SDS011;30771;47.988;-4.186;2023-05-10T13:26:29;9.43;;;1.70;;
45033;SDS011;30771;47.988;-4.186;2023-05-10T13:28:54;8.55;;;1.67;;
45033;SDS011;30771;47.988;-4.186;2023-05-10T13:31:20;9.15;;;1.95;;
45033;SDS011;30771;47.988;-4.186;2023-05-10T13:33:45;13.02;;;2.00;;
45033;SDS011;30771;47.988;-4.186;2023-05-10T13:36:10;11.00;;;1.88;;
45033;SDS011;30771;47.988;-4.186;2023-05-10T13:38:36;10.60;;;1.67;;
45033;SDS011;30771;47.988;-4.186;2023-05-10T13:41:01;11.65;;;1.95;;
45033;SDS011;30771;47.988;-4.186;2023-05-10T13:43:26;15.20;;;2.97;;
45033;SDS011;30771;47.988;-4.186;2023-05-10T13:45:51;16.50;;;2.25;;
45033;SDS011;30771;47.988;-4.186;2023-05-10T13:48:17;11.73;;;2.58;;
45033;SDS011;30771;47.988;-4.186;2023-05-10T13:50:42;13.77;;;1.83;;
45033;SDS011;30771;47.988;-4.186;2023-05-10T13:53:08;14.20;;;2.38;;
45033;SDS011;30771;47.988;-4.186;2023-05-10T13:55:33;10.55;;;1.80;;
45033;SDS011;30771;47.988;-4.186;2023-05-10T13:57:58;8.02;;;1.45;;
45033;SDS011;30771;47.988;-4.186;2023-05-10T14:00:24;5.80;;;1.10;;
45033;SDS011;30771;47.988;-4.186;2023-05-10T14:02:49;11.32;;;1.60;;
45033;SDS011;30771;47.988;-4.186;2023-05-10T14:05:14;6.85;;;0.93;;
45033;SDS011;30771;47.988;-4.186;2023-05-10T14:07:40;5.22;;;0.82;;
45033;SDS011;30771;47.988;-4.186;2023-05-10T14:10:05;3.92;;;1.10;;
45033;SDS011;30771;47.988;-4.186;2023-05-10T14:12:30;4.57;;;1.30;;
45033;SDS011;30771;47.988;-4.186;2023-05-10T14:14:56;4.70;;;1.00;;
45033;SDS011;30771;47.988;-4.186;2023-05-10T14:17:21;6.50;;;1.40;;
45033;SDS011;30771;47.988;-4.186;2023-05-10T14:19:46;9.13;;;1.20;;
45033;SDS011;30771;47.988;-4.186;2023-05-10T14:22:11;6.90;;;1.05;;
45033;SDS011;30771;47.988;-4.186;2023-05-10T14:24:37;5.65;;;1.13;;
45033;SDS011;30771;47.988;-4.186;2023-05-10T14:27:03;9.25;;;1.20;;
45033;SDS011;30771;47.988;-4.186;2023-05-10T14:29:28;5.43;;;1.05;;
45033;SDS011;30771;47.988;-4.186;2023-05-10T14:31:53;8.85;;;1.35;;
45033;SDS011;30771;47.988;-4.186;2023-05-10T14:34:18;4.75;;;0.90;;
45033;SDS011;30771;47.988;-4.186;2023-05-10T14:36:44;8.30;;;1.20;;
45033;SDS011;30771;47.988;-4.186;2023-05-10T14:39:09;6.85;;;1.20;;
45033;SDS011;30771;47.988;-4.186;2023-05-10T14:41:34;3.95;;;0.90;;
45033;SDS011;30771;47.988;-4.186;2023-05-10T14:44:00;8.45;;;1.30;;
45033;SDS011;30771;47.988;-4.186;2023-05-10T14:46:25;6.80;;;1.05;;
45033;SDS011;30771;47.988;-4.186;2023-05-10T14:48:50;3.67;;;0.70;;
45033;SDS011;30771;47.988;-4.186;2023-05-10T14:51:15;6.38;;;1.00;;
45033;SDS011;30771;47.988;-4.186;2023-05-10T14:53:41;5.07;;;1.10;;
45033;SDS011;30771;47.988;-4.186;2023-05-10T14:56:06;5.07;;;0.88;;
45033;SDS011;30771;47.988;-4.186;2023-05-10T14:58:31;5.22;;;1.20;;
45033;SDS011;30771;47.988;-4.186;2023-05-10T15:00:56;5.72;;;1.00;;
45033;SDS011;30771;47.988;-4.186;2023-05-10T15:03:22;3.70;;;0.60;;
45033;SDS011;30771;47.988;-4.186;2023-05-10T15:05:47;5.35;;;0.73;;
45033;SDS011;30771;47.988;-4.186;2023-05-10T15:08:13;3.15;;;0.77;;
45033;SDS011;30771;47.988;-4.186;2023-05-10T15:10:38;3.88;;;0.80;;
45033;SDS011;30771;47.988;-4.186;2023-05-10T15:13:04;5.63;;;1.35;;
45033;SDS011;30771;47.988;-4.186;2023-05-10T15:15:29;4.57;;;0.70;;
45033;SDS011;30771;47.988;-4.186;2023-05-10T15:17:55;5.60;;;0.90;;
45033;SDS011;30771;47.988;-4.186;2023-05-10T15:20:20;6.35;;;0.70;;
45033;SDS011;30771;47.988;-4.186;2023-05-10T15:22:45;4.60;;;0.80;;
45033;SDS011;30771;47.988;-4.186;2023-05-10T15:25:10;4.85;;;0.73;;
45033;SDS011;30771;47.988;-4.186;2023-05-10T15:27:36;2.50;;;0.60;;
45033;SDS011;30771;47.988;-4.186;2023-05-10T15:30:01;3.65;;;0.70;;
45033;SDS011;30771;47.988;-4.186;2023-05-10T15:32:26;4.78;;;0.70;;
45033;SDS011;30771;47.988;-4.186;2023-05-10T15:34:52;5.53;;;0.70;;
45033;SDS011;30771;47.988;-4.186;2023-05-10T15:37:17;3.38;;;0.95;;
45033;SDS011;30771;47.988;-4.186;2023-05-10T15:39:43;3.17;;;0.90;;
45033;SDS011;30771;47.988;-4.186;2023-05-10T15:42:08;4.68;;;0.80;;
45033;SDS011;30771;47.988;-4.186;2023-05-10T15:44:34;7.15;;;1.38;;
45033;SDS011;30771;47.988;-4.186;2023-05-10T15:46:59;5.10;;;1.00;;
45033;SDS011;30771;47.988;-4.186;2023-05-10T15:49:24;4.70;;;1.10;;
45033;SDS011;30771;47.988;-4.186;2023-05-10T15:51:49;8.20;;;1.20;;
45033;SDS011;30771;47.988;-4.186;2023-05-10T15:54:15;10.60;;;1.40;;
45033;SDS011;30771;47.988;-4.186;2023-05-10T15:56:40;8.48;;;1.65;;
45033;SDS011;30771;47.988;-4.186;2023-05-10T15:59:05;7.43;;;1.00;;
45033;SDS011;30771;47.988;-4.186;2023-05-10T16:01:30;10.23;;;1.42;;
45033;SDS011;30771;47.988;-4.186;2023-05-10T16:03:56;7.90;;;1.30;;
45033;SDS011;30771;47.988;-4.186;2023-05-10T16:06:21;8.10;;;1.58;;
45033;SDS011;30771;47.988;-4.186;2023-05-10T16:08:47;7.10;;;1.42;;
45033;SDS011;30771;47.988;-4.186;2023-05-10T16:11:13;8.32;;;1.90;;
45033;SDS011;30771;47.988;-4.186;2023-05-10T16:13:38;8.63;;;1.50;;
45033;SDS011;30771;47.988;-4.186;2023-05-10T16:16:03;9.07;;;1.42;;
45033;SDS011;30771;47.988;-4.186;2023-05-10T16:18:29;11.88;;;1.60;;
45033;SDS011;30771;47.988;-4.186;2023-05-10T16:20:54;5.80;;;1.40;;
45033;SDS011;30771;47.988;-4.186;2023-05-10T16:23:19;8.57;;;1.30;;
45033;SDS011;30771;47.988;-4.186;2023-05-10T16:25:45;4.90;;;1.27;;
45033;SDS011;30771;47.988;-4.186;2023-05-10T16:28:10;6.28;;;1.15;;
45033;SDS011;30771;47.988;-4.186;2023-05-10T16:30:36;5.00;;;0.95;;
45033;SDS011;30771;47.988;-4.186;2023-05-10T16:33:01;5.93;;;1.02;;
45033;SDS011;30771;47.988;-4.186;2023-05-10T16:35:27;7.53;;;1.13;;
45033;SDS011;30771;47.988;-4.186;2023-05-10T16:37:53;5.70;;;1.20;;
45033;SDS011;30771;47.988;-4.186;2023-05-10T16:40:18;4.30;;;1.20;;
45033;SDS011;30771;47.988;-4.186;2023-05-10T16:42:43;10.02;;;1.38;;
45033;SDS011;30771;47.988;-4.186;2023-05-10T16:45:09;6.95;;;1.20;;
45033;SDS011;30771;47.988;-4.186;2023-05-10T16:47:36;6.97;;;1.10;;
45033;SDS011;30771;47.988;-4.186;2023-05-10T16:50:02;6.60;;;1.15;;
45033;SDS011;30771;47.988;-4.186;2023-05-10T16:52:29;6.13;;;1.20;;
45033;SDS011;30771;47.988;-4.186;2023-05-10T16:54:55;4.97;;;1.02;;
45033;SDS011;30771;47.988;-4.186;2023-05-10T16:57:21;9.50;;;1.48;;
45033;SDS011;30771;47.988;-4.186;2023-05-10T16:59:46;8.50;;;1.58;;
45033;SDS011;30771;47.988;-4.186;2023-05-10T17:02:14;11.68;;;1.52;;
45033;SDS011;30771;47.988;-4.186;2023-05-10T17:04:40;6.82;;;1.27;;
45033;SDS011;30771;47.988;-4.186;2023-05-10T17:07:06;10.32;;;1.50;;
45033;SDS011;30771;47.988;-4.186;2023-05-10T17:09:31;4.40;;;0.90;;
45033;SDS011;30771;47.988;-4.186;2023-05-10T17:11:57;6.03;;;1.20;;
45033;SDS011;30771;47.988;-4.186;2023-05-10T17:14:22;10.25;;;1.10;;
45033;SDS011;30771;47.988;-4.186;2023-05-10T17:16:47;9.27;;;1.35;;
45033;SDS011;30771;47.988;-4.186;2023-05-10T17:19:13;6.88;;;1.20;;
45033;SDS011;30771;47.988;-4.186;2023-05-10T17:21:38;6.85;;;1.23;;
45033;SDS011;30771;47.988;-4.186;2023-05-10T17:24:04;5.90;;;0.80;;
45033;SDS011;30771;47.988;-4.186;2023-05-10T17:26:29;5.00;;;0.82;;
45033;SDS011;30771;47.988;-4.186;2023-05-10T17:28:54;7.53;;;0.90;;
45033;SDS011;30771;47.988;-4.186;2023-05-10T17:31:20;8.35;;;1.15;;
45033;SDS011;30771;47.988;-4.186;2023-05-10T17:33:45;7.75;;;0.98;;
45033;SDS011;30771;47.988;-4.186;2023-05-10T17:36:10;3.80;;;0.55;;
45033;SDS011;30771;47.988;-4.186;2023-05-10T17:38:36;5.18;;;0.80;;
45033;SDS011;30771;47.988;-4.186;2023-05-10T17:41:01;6.72;;;0.77;;
45033;SDS011;30771;47.988;-4.186;2023-05-10T17:43:26;3.33;;;0.75;;
45033;SDS011;30771;47.988;-4.186;2023-05-10T17:45:54;6.05;;;0.88;;
45033;SDS011;30771;47.988;-4.186;2023-05-10T17:48:20;5.35;;;1.13;;
45033;SDS011;30771;47.988;-4.186;2023-05-10T17:50:45;5.40;;;1.05;;
45033;SDS011;30771;47.988;-4.186;2023-05-10T17:53:10;6.70;;;1.10;;
45033;SDS011;30771;47.988;-4.186;2023-05-10T17:55:38;8.95;;;1.20;;
45033;SDS011;30771;47.988;-4.186;2023-05-10T17:58:04;7.53;;;1.27;;
45033;SDS011;30771;47.988;-4.186;2023-05-10T18:00:30;5.40;;;0.73;;
45033;SDS011;30771;47.988;-4.186;2023-05-10T18:02:55;5.80;;;1.23;;
45033;SDS011;30771;47.988;-4.186;2023-05-10T18:05:20;4.63;;;0.73;;
45033;SDS011;30771;47.988;-4.186;2023-05-10T18:07:45;5.40;;;1.08;;
45033;SDS011;30771;47.988;-4.186;2023-05-10T18:10:11;6.18;;;1.13;;
45033;SDS011;30771;47.988;-4.186;2023-05-10T18:12:36;4.70;;;0.90;;
45033;SDS011;30771;47.988;-4.186;2023-05-10T18:15:02;2.90;;;0.60;;
45033;SDS011;30771;47.988;-4.186;2023-05-10T18:17:27;2.63;;;0.45;;
45033;SDS011;30771;47.988;-4.186;2023-05-10T18:19:52;5.97;;;1.13;;
45033;SDS011;30771;47.988;-4.186;2023-05-10T18:22:18;3.30;;;0.80;;
45033;SDS011;30771;47.988;-4.186;2023-05-10T18:24:43;6.15;;;1.10;;
45033;SDS011;30771;47.988;-4.186;2023-05-10T18:27:08;3.15;;;0.70;;
45033;SDS011;30771;47.988;-4.186;2023-05-10T18:29:33;5.18;;;0.77;;
45033;SDS011;30771;47.988;-4.186;2023-05-10T18:31:59;2.95;;;0.70;;
45033;SDS011;30771;47.988;-4.186;2023-05-10T18:34:24;2.35;;;0.73;;
45033;SDS011;30771;47.988;-4.186;2023-05-10T18:36:50;6.03;;;0.82;;
45033;SDS011;30771;47.988;-4.186;2023-05-10T18:39:15;5.10;;;0.60;;
45033;SDS011;30771;47.988;-4.186;2023-05-10T18:41:40;2.70;;;0.65;;
45033;SDS011;30771;47.988;-4.186;2023-05-10T18:44:06;1.98;;;0.60;;
45033;SDS011;30771;47.988;-4.186;2023-05-10T18:46:31;1.95;;;0.70;;
45033;SDS011;30771;47.988;-4.186;2023-05-10T18:48:56;2.17;;;0.65;;
45033;SDS011;30771;47.988;-4.186;2023-05-10T18:51:21;3.35;;;0.85;;
45033;SDS011;30771;47.988;-4.186;2023-05-10T18:53:47;4.07;;;0.80;;
45033;SDS011;30771;47.988;-4.186;2023-05-10T18:56:12;4.45;;;1.10;;
45033;SDS011;30771;47.988;-4.186;2023-05-10T18:58:38;6.95;;;0.93;;
45033;SDS011;30771;47.988;-4.186;2023-05-10T19:01:03;3.75;;;0.63;;
45033;SDS011;30771;47.988;-4.186;2023-05-10T19:03:29;3.75;;;0.65;;
45033;SDS011;30771;47.988;-4.186;2023-05-10T19:05:54;5.00;;;0.90;;
45033;SDS011;30771;47.988;-4.186;2023-05-10T19:08:19;4.20;;;0.85;;
45033;SDS011;30771;47.988;-4.186;2023-05-10T19:10:45;3.60;;;0.77;;
45033;SDS011;30771;47.988;-4.186;2023-05-10T19:13:10;5.25;;;0.95;;
45033;SDS011;30771;47.988;-4.186;2023-05-10T19:15:35;8.07;;;1.08;;
45033;SDS011;30771;47.988;-4.186;2023-05-10T19:18:01;3.65;;;0.90;;
45033;SDS011;30771;47.988;-4.186;2023-05-10T19:20:26;4.45;;;0.85;;
45033;SDS011;30771;47.988;-4.186;2023-05-10T19:22:51;5.85;;;0.90;;
45033;SDS011;30771;47.988;-4.186;2023-05-10T19:25:17;6.90;;;0.85;;
45033;SDS011;30771;47.988;-4.186;2023-05-10T19:27:42;5.75;;;1.20;;
45033;SDS011;30771;47.988;-4.186;2023-05-10T19:30:08;6.15;;;0.93;;
45033;SDS011;30771;47.988;-4.186;2023-05-10T19:32:34;5.78;;;1.27;;
45033;SDS011;30771;47.988;-4.186;2023-05-10T19:34:59;4.85;;;0.95;;
45033;SDS011;30771;47.988;-4.186;2023-05-10T19:37:24;5.85;;;1.38;;
45033;SDS011;30771;47.988;-4.186;2023-05-10T19:39:50;5.15;;;1.13;;
45033;SDS011;30771;47.988;-4.186;2023-05-10T19:42:15;7.32;;;0.98;;
45033;SDS011;30771;47.988;-4.186;2023-05-10T19:44:40;8.82;;;1.23;;
45033;SDS011;30771;47.988;-4.186;2023-05-10T19:47:05;10.60;;;1.30;;
45033;SDS011;30771;47.988;-4.186;2023-05-10T19:49:31;6.03;;;1.40;;
45033;SDS011;30771;47.988;-4.186;2023-05-10T19:51:56;6.78;;;1.40;;
45033;SDS011;30771;47.988;-4.186;2023-05-10T19:54:21;5.03;;;1.50;;
45033;SDS011;30771;47.988;-4.186;2023-05-10T19:56:46;5.78;;;1.65;;
45033;SDS011;30771;47.988;-4.186;2023-05-10T19:59:12;7.90;;;1.52;;
45033;SDS011;30771;47.988;-4.186;2023-05-10T20:01:37;6.70;;;1.63;;
45033;SDS011;30771;47.988;-4.186;2023-05-10T20:04:02;7.32;;;1.60;;
45033;SDS011;30771;47.988;-4.186;2023-05-10T20:06:28;6.43;;;1.40;;
45033;SDS011;30771;47.988;-4.186;2023-05-10T20:08:53;6.68;;;1.40;;
45033;SDS011;30771;47.988;-4.186;2023-05-10T20:11:18;7.15;;;1.40;;
45033;SDS011;30771;47.988;-4.186;2023-05-10T20:13:44;5.32;;;1.30;;
45033;SDS011;30771;47.988;-4.186;2023-05-10T20:16:09;9.27;;;1.98;;
45033;SDS011;30771;47.988;-4.186;2023-05-10T20:18:34;7.82;;;1.38;;
45033;SDS011;30771;47.988;-4.186;2023-05-10T20:21:00;6.47;;;1.20;;
45033;SDS011;30771;47.988;-4.186;2023-05-10T20:23:25;5.13;;;1.27;;
45033;SDS011;30771;47.988;-4.186;2023-05-10T20:25:50;4.97;;;1.23;;
45033;SDS011;30771;47.988;-4.186;2023-05-10T20:28:23;7.30;;;1.45;;
45033;SDS011;30771;47.988;-4.186;2023-05-10T20:30:52;8.73;;;1.40;;
45033;SDS011;30771;47.988;-4.186;2023-05-10T20:33:19;10.73;;;1.85;;